Time;durP1;ratioP1;P1;durP2;ratioP2;P2;SDS_P1;SDS_P2;PMS_P1;PMS_P2;Temp;Humidity;BMP_temperature;BMP_pressure;BME280_temperature;BME280_humidity;BME280_pressure;Samples;Min_cycle;Max_cycle;Signal;HPM_P1;HPM_P2
2022/02/20 00:00:43;;;;;;;3.38;0.60;;;;;;;4.96;64.81;98776.69;5086278;28;20051;-77
2022/02/20 00:03:08;;;;;;;3.30;0.60;;;;;;;4.74;66.03;98755.88;5086457;28;20566;-76
2022/02/20 00:05:34;;;;;;;6.70;0.90;;;;;;;4.77;66.31;98767.13;5087482;28;20566;-77
2022/02/20 00:07:59;;;;;;;2.33;0.77;;;;;;;4.72;66.97;98760.59;5084187;28;20555;-75
2022/02/20 00:10:25;;;;;;;5.15;0.85;;;;;;;4.67;66.87;98753.06;5080864;28;20384;-77
2022/02/20 00:12:50;;;;;;;6.75;0.82;;;;;;;4.79;66.53;98764.28;5086934;28;20936;-77
2022/02/20 00:15:16;;;;;;;3.47;0.60;;;;;;;4.71;67.12;98750.88;5088588;28;20068;-76
2022/02/20 00:17:41;;;;;;;3.10;0.88;;;;;;;4.80;67.29;98757.94;5085434;28;20123;-77
2022/02/20 00:20:07;;;;;;;5.00;0.63;;;;;;;4.74;67.18;98753.22;5080641;28;20130;-76
2022/02/20 00:22:34;;;;;;;3.20;0.88;;;;;;;4.66;67.66;98737.97;5083211;28;20043;-77
2022/02/20 00:25:00;;;;;;;1.48;0.50;;;;;;;4.73;68.26;98760.41;5085731;28;20093;-77
2022/02/20 00:27:27;;;;;;;2.45;0.90;;;;;;;4.67;69.02;98758.41;5083882;28;20028;-77
2022/02/20 00:29:53;;;;;;;1.85;0.30;;;;;;;4.51;69.48;98737.81;5086065;28;20043;-77
2022/02/20 00:32:19;;;;;;;4.40;0.60;;;;;;;4.44;69.48;98731.44;5086587;28;20027;-76
2022/02/20 00:34:44;;;;;;;3.13;0.93;;;;;;;4.44;70.45;98749.34;5091424;28;20022;-78
2022/02/20 00:37:10;;;;;;;3.58;0.57;;;;;;;4.41;70.13;98728.25;5087694;28;20115;-75
2022/02/20 00:39:35;;;;;;;1.92;0.50;;;;;;;4.30;70.57;98719.53;5090450;28;20460;-78
2022/02/20 00:42:01;;;;;;;3.22;0.75;;;;;;;4.50;70.45;98752.19;5089500;28;20107;-76
2022/02/20 00:44:26;;;;;;;2.22;0.68;;;;;;;4.46;70.80;98748.19;5083156;28;20054;-77
2022/02/20 00:46:52;;;;;;;4.07;1.08;;;;;;;4.38;70.75;98742.81;5139808;22;20487;-71
2022/02/20 00:49:17;;;;;;;1.13;0.52;;;;;;;4.39;70.63;98741.81;5096762;28;20033;-72
2022/02/20 00:51:42;;;;;;;5.47;0.90;;;;;;;4.22;71.42;98716.00;5092581;28;20413;-71
2022/02/20 00:54:10;;;;;;;3.95;0.90;;;;;;;4.29;71.23;98730.41;5085799;28;20023;-72
2022/02/20 00:56:37;;;;;;;6.07;1.02;;;;;;;4.17;71.77;98730.72;5086335;28;20062;-72
2022/02/20 00:59:04;;;;;;;5.25;0.80;;;;;;;4.19;71.89;98733.22;5065760;28;20477;-71
2022/02/20 01:01:29;;;;;;;3.95;1.05;;;;;;;4.26;72.57;98744.13;5068203;28;20020;-71
2022/02/20 01:03:55;;;;;;;5.70;0.93;;;;;;;4.19;72.86;98727.88;5062799;28;20027;-72
2022/02/20 01:06:20;;;;;;;7.30;0.70;;;;;;;4.29;72.65;98743.78;5068144;28;20036;-71
2022/02/20 01:08:46;;;;;;;4.47;0.80;;;;;;;4.18;72.86;98737.75;5065250;28;20132;-72
2022/02/20 01:11:11;;;;;;;3.42;0.80;;;;;;;4.02;73.04;98721.66;5065936;28;20043;-72
2022/02/20 01:13:36;;;;;;;4.93;0.93;;;;;;;4.13;73.12;98742.75;5063342;28;20033;-72
2022/02/20 01:16:02;;;;;;;1.52;0.52;;;;;;;4.30;73.30;98745.50;5068544;28;20025;-71
2022/02/20 01:18:28;;;;;;;4.15;0.85;;;;;;;4.05;73.70;98720.50;5061201;28;20101;-71
2022/02/20 01:20:53;;;;;;;5.15;0.65;;;;;;;4.07;73.86;98726.53;5067544;28;20103;-71
2022/02/20 01:23:18;;;;;;;6.05;0.90;;;;;;;4.09;74.14;98721.84;5067863;28;20063;-71
2022/02/20 01:25:44;;;;;;;4.15;0.80;;;;;;;4.26;74.06;98749.50;5067754;28;20111;-73
2022/02/20 01:28:09;;;;;;;4.75;0.80;;;;;;;4.19;73.98;98733.22;5069166;28;20023;-71
2022/02/20 01:30:34;;;;;;;2.63;0.80;;;;;;;4.24;73.84;98730.06;5069224;28;20398;-71
2022/02/20 01:32:59;;;;;;;4.28;0.73;;;;;;;4.14;74.31;98730.22;5067510;28;20020;-71
2022/02/20 01:35:25;;;;;;;4.28;0.73;;;;;;;3.97;75.58;98705.25;5063115;28;20165;-71
2022/02/20 01:37:50;;;;;;;6.43;1.15;;;;;;;3.99;75.40;98722.00;5068919;28;20028;-71
2022/02/20 01:40:16;;;;;;;3.95;0.65;;;;;;;4.15;75.56;98738.09;5066881;28;20169;-72
2022/02/20 01:42:42;;;;;;;3.60;0.80;;;;;;;4.20;74.53;98745.63;5076313;28;20028;-72
2022/02/20 01:45:13;;;;;;;4.75;1.45;;;;;;;4.20;74.76;98745.63;5075402;28;20062;-72
2022/02/20 01:47:38;;;;;;;4.88;0.90;;;;;;;4.03;75.07;98715.28;5077271;28;20538;-71
2022/02/20 01:50:04;;;;;;;2.03;0.60;;;;;;;4.27;74.98;98751.16;5077056;28;20063;-71
2022/02/20 01:52:30;;;;;;;6.57;0.98;;;;;;;4.15;74.39;98730.06;5075845;28;20388;-71
2022/02/20 01:54:55;;;;;;;5.85;0.82;;;;;;;4.26;75.52;98744.13;5079973;28;20134;-72
2022/02/20 01:57:21;;;;;;;4.28;0.73;;;;;;;4.26;75.30;98744.13;5081364;28;20029;-71
2022/02/20 01:59:46;;;;;;;3.22;0.70;;;;;;;4.15;75.44;98722.03;5077526;28;20024;-72
2022/02/20 02:02:12;;;;;;;6.03;0.63;;;;;;;4.31;75.10;98763.22;5065208;28;20104;-71
2022/02/20 02:04:37;;;;;;;9.43;0.75;;;;;;;4.10;76.51;98724.34;5067353;28;20035;-72
2022/02/20 02:07:02;;;;;;;3.75;0.77;;;;;;;4.14;76.81;98757.84;5067677;28;20082;-72
2022/02/20 02:09:28;;;;;;;7.38;1.15;;;;;;;3.88;78.05;98723.13;5062273;28;20028;-71
2022/02/20 02:11:53;;;;;;;2.88;0.45;;;;;;;4.07;78.24;98743.41;5068769;28;20437;-72
2022/02/20 02:14:19;;;;;;;6.10;0.70;;;;;;;4.10;77.61;98751.13;5064746;28;20077;-72
2022/02/20 02:16:44;;;;;;;4.28;0.63;;;;;;;4.08;77.16;98741.56;5066372;28;20033;-71
2022/02/20 02:19:10;;;;;;;5.40;0.88;;;;;;;3.98;77.94;98731.00;5062834;28;20031;-72
2022/02/20 02:21:35;;;;;;;2.53;1.00;;;;;;;4.13;76.98;98744.59;5065106;28;20120;-71
2022/02/20 02:24:01;;;;;;;2.65;0.38;;;;;;;4.00;77.21;98723.66;5065440;28;20029;-71
2022/02/20 02:26:27;;;;;;;6.60;1.02;;;;;;;4.05;77.02;98740.06;5066040;28;20032;-72
2022/02/20 02:28:52;;;;;;;3.58;0.73;;;;;;;4.20;76.07;98736.75;5069468;28;20029;-71
2022/02/20 02:31:19;;;;;;;1.90;0.60;;;;;;;4.33;76.84;98750.50;5067308;28;20146;-72
2022/02/20 02:33:50;;;;;;;2.55;0.82;;;;;;;4.35;77.16;98744.00;5070575;28;20037;-72
2022/02/20 02:36:15;;;;;;;3.97;0.70;;;;;;;4.15;77.35;98716.66;5072678;28;20035;-72
2022/02/20 02:38:41;;;;;;;2.97;0.90;;;;;;;4.18;76.98;98721.69;5075569;28;20017;-72
2022/02/20 02:41:07;;;;;;;2.72;1.02;;;;;;;4.37;76.77;98743.81;5082216;28;20024;-72
2022/02/20 02:43:35;;;;;;;5.68;0.80;;;;;;;4.27;75.88;98729.72;5080576;28;20020;-72
2022/02/20 02:46:01;;;;;;;5.25;0.70;;;;;;;4.33;75.47;98721.88;5077323;28;20032;-73
2022/02/20 02:48:27;;;;;;;3.45;1.30;;;;;;;4.45;75.29;98724.22;5075294;28;20536;-72
2022/02/20 02:50:53;;;;;;;4.18;0.98;;;;;;;4.34;75.47;98720.88;5073069;28;20083;-72
2022/02/20 02:53:18;;;;;;;5.07;0.90;;;;;;;4.52;75.34;98747.50;5070478;28;20108;-74
2022/02/20 02:55:49;;;;;;;3.55;0.55;;;;;;;4.54;75.86;98758.91;5071187;28;20368;-74
2022/02/20 02:58:24;;;;;;;7.10;0.60;;;;;;;4.25;76.30;98710.34;5079364;28;20716;-72
2022/02/20 03:00:50;;;;;;;6.50;0.88;;;;;;;4.50;75.50;98749.50;5059191;28;20025;-72
2022/02/20 03:03:15;;;;;;;4.13;0.80;;;;;;;4.34;75.22;98709.31;5059889;28;20043;-71
2022/02/20 03:05:41;;;;;;;4.97;0.80;;;;;;;4.49;75.10;98733.63;5061070;28;20119;-71
2022/02/20 03:08:07;;;;;;;3.38;0.90;;;;;;;4.44;75.46;98720.72;5057601;28;20064;-72
2022/02/20 03:10:32;;;;;;;3.05;0.80;;;;;;;4.55;74.83;98743.66;5058210;28;20029;-72
2022/02/20 03:12:58;;;;;;;6.25;0.68;;;;;;;4.64;75.03;98736.47;5064616;28;20077;-72
2022/02/20 03:15:23;;;;;;;3.60;0.93;;;;;;;4.58;74.94;98740.66;5063250;28;20131;-72
2022/02/20 03:17:49;;;;;;;4.30;0.70;;;;;;;4.39;74.63;98707.81;5062168;28;20051;-72
2022/02/20 03:20:14;;;;;;;3.20;0.73;;;;;;;4.56;74.54;98735.47;5064092;28;20036;-72
2022/02/20 03:22:40;;;;;;;4.53;0.75;;;;;;;4.68;74.23;98737.81;5069233;28;20120;-73
2022/02/20 03:25:06;;;;;;;5.25;0.70;;;;;;;4.81;74.09;98773.00;5061715;28;20111;-72
2022/02/20 03:27:33;;;;;;;4.47;0.98;;;;;;;4.82;74.45;98766.63;5067391;28;20032;-72
2022/02/20 03:29:58;;;;;;;3.42;0.60;;;;;;;4.80;74.19;98757.94;5066361;28;20056;-73
2022/02/20 03:32:23;;;;;;;3.97;0.70;;;;;;;4.72;74.35;98757.94;5065932;28;20109;-72
2022/02/20 03:34:49;;;;;;;5.35;0.80;;;;;;;4.78;74.79;98766.13;5067379;28;20088;-72
2022/02/20 03:37:14;;;;;;;4.90;0.73;;;;;;;4.90;74.46;98785.41;5062389;28;20171;-72
2022/02/20 03:39:39;;;;;;;4.15;0.98;;;;;;;4.78;74.92;98759.94;5065884;28;20032;-72
2022/02/20 03:42:05;;;;;;;6.97;0.85;;;;;;;4.72;74.63;98744.53;5064494;28;20662;-72
2022/02/20 03:44:30;;;;;;;5.57;0.77;;;;;;;4.77;75.26;98759.09;5065099;28;20505;-72
2022/02/20 03:46:55;;;;;;;4.30;0.80;;;;;;;4.84;75.15;98762.75;5068034;28;20077;-72
2022/02/20 03:49:21;;;;;;;4.00;0.68;;;;;;;4.86;75.46;98767.97;5064183;28;20024;-73
2022/02/20 03:51:46;;;;;;;6.28;0.70;;;;;;;4.93;75.88;98768.16;5066528;28;20031;-72
2022/02/20 03:54:11;;;;;;;5.43;0.93;;;;;;;4.98;75.34;98772.00;5063434;28;20028;-72
2022/02/20 03:56:37;;;;;;;4.20;0.65;;;;;;;4.90;75.59;98758.59;5066061;28;20027;-72
2022/02/20 03:59:03;;;;;;;5.80;0.70;;;;;;;5.03;75.98;98801.81;5063177;28;20028;-73
2022/02/20 04:01:28;;;;;;;5.75;0.73;;;;;;;4.90;76.38;98763.09;5060644;28;20026;-72
2022/02/20 04:03:54;;;;;;;3.38;0.57;;;;;;;5.02;76.50;98805.50;5064006;28;20126;-72
2022/02/20 04:06:19;;;;;;;1.60;0.50;;;;;;;4.93;76.37;98776.19;5062205;28;20103;-72
2022/02/20 04:08:44;;;;;;;2.97;0.60;;;;;;;4.90;76.36;98774.69;5064167;28;20036;-72
2022/02/20 04:11:10;;;;;;;4.00;1.00;;;;;;;4.84;76.77;98781.53;5062140;28;20028;-72
2022/02/20 04:13:35;;;;;;;5.38;0.73;;;;;;;4.93;77.02;98785.06;5063221;28;20027;-72
2022/02/20 04:16:01;;;;;;;3.88;0.50;;;;;;;5.03;77.15;98807.19;5063229;28;20035;-72
2022/02/20 04:18:26;;;;;;;3.40;0.73;;;;;;;4.92;77.01;98793.25;5060771;28;20040;-72
2022/02/20 04:20:51;;;;;;;2.50;0.40;;;;;;;5.02;77.55;98821.56;5067269;28;20035;-72
2022/02/20 04:23:16;;;;;;;2.97;0.30;;;;;;;4.93;77.24;98811.88;5059660;28;20122;-72
2022/02/20 04:25:42;;;;;;;4.43;0.60;;;;;;;4.87;78.10;98804.47;5065695;28;20103;-72
2022/02/20 04:28:07;;;;;;;3.33;0.60;;;;;;;4.90;78.41;98812.22;5064475;28;20027;-72
2022/02/20 04:30:33;;;;;;;4.35;0.80;;;;;;;4.93;77.75;98821.75;5059712;28;20107;-72
2022/02/20 04:32:58;;;;;;;2.63;0.70;;;;;;;4.65;78.60;98770.31;5066282;28;20108;-72
2022/02/20 04:35:23;;;;;;;3.97;1.00;;;;;;;5.00;78.23;98812.88;5081029;28;20025;-72
2022/02/20 04:37:53;;;;;;;2.40;0.50;;;;;;;4.92;78.46;98830.78;5069138;28;20044;-72
2022/02/20 04:40:19;;;;;;;3.03;0.43;;;;;;;4.95;79.08;98835.81;5064439;28;20037;-71
2022/02/20 04:42:47;;;;;;;4.05;0.80;;;;;;;4.78;79.30;98817.03;5067407;28;20067;-72
2022/02/20 04:45:12;;;;;;;2.58;0.40;;;;;;;4.90;79.49;98832.78;5069437;28;20055;-72
2022/02/20 04:47:37;;;;;;;1.55;0.30;;;;;;;4.83;80.37;98829.97;5061854;28;20063;-72
2022/02/20 04:50:03;;;;;;;2.80;0.55;;;;;;;4.93;80.51;98853.94;5061975;28;20063;-72
2022/02/20 04:52:28;;;;;;;2.38;0.45;;;;;;;4.96;80.41;98854.44;5063444;28;20088;-72
2022/02/20 04:54:54;;;;;;;1.35;0.50;;;;;;;4.91;80.57;98851.41;5066930;28;20024;-72
2022/02/20 04:57:19;;;;;;;2.10;0.30;;;;;;;4.82;81.20;98847.03;5060680;28;20033;-73
2022/02/20 04:59:44;;;;;;;1.85;0.35;;;;;;;4.68;81.59;98835.13;5064757;28;20021;-72
2022/02/20 05:02:10;;;;;;;1.65;0.43;;;;;;;4.70;81.95;98818.88;5065729;28;20089;-73
2022/02/20 05:04:35;;;;;;;5.15;0.45;;;;;;;4.76;81.90;98837.81;5061225;28;20081;-72
2022/02/20 05:07:00;;;;;;;4.22;0.70;;;;;;;4.72;82.02;98832.97;5062672;28;20024;-71
2022/02/20 05:09:26;;;;;;;2.17;0.55;;;;;;;4.74;82.18;98829.13;5059444;28;20033;-72
2022/02/20 05:11:51;;;;;;;3.33;0.93;;;;;;;4.76;81.55;98827.09;5061206;28;20108;-71
2022/02/20 05:14:16;;;;;;;2.88;0.85;;;;;;;4.74;82.06;98814.84;5059121;28;20119;-71
2022/02/20 05:16:42;;;;;;;5.47;1.10;;;;;;;4.74;81.91;98809.50;5062126;28;20024;-72
2022/02/20 05:19:07;;;;;;;3.58;1.00;;;;;;;4.76;82.30;98820.91;5060359;28;20392;-72
2022/02/20 05:21:33;;;;;;;6.20;0.70;;;;;;;4.80;82.09;98841.00;5057633;28;20108;-71
2022/02/20 05:23:58;;;;;;;4.47;0.70;;;;;;;4.73;83.08;98821.22;5062224;28;20028;-72
2022/02/20 05:26:24;;;;;;;3.97;0.90;;;;;;;4.81;82.55;98851.56;5056057;28;20120;-71
2022/02/20 05:28:49;;;;;;;0.98;0.30;;;;;;;4.81;83.08;98853.41;5061524;28;20057;-73
2022/02/20 05:31:14;;;;;;;4.35;0.50;;;;;;;4.84;83.15;98855.75;5057545;28;20123;-73
2022/02/20 05:33:40;;;;;;;2.90;0.63;;;;;;;4.77;82.57;98838.66;5055891;28;20024;-73
2022/02/20 05:36:08;;;;;;;3.70;0.80;;;;;;;4.95;82.86;98866.16;5055745;28;20040;-73
2022/02/20 05:38:33;;;;;;;2.53;0.70;;;;;;;4.94;82.78;98867.16;5077505;28;20028;-73
2022/02/20 05:40:58;;;;;;;1.77;0.98;;;;;;;4.88;82.86;98873.19;5058592;28;20030;-73
2022/02/20 05:43:24;;;;;;;2.65;1.10;;;;;;;4.77;82.83;98846.72;5065329;28;20449;-73
2022/02/20 05:45:49;;;;;;;5.25;1.67;;;;;;;4.88;82.67;98851.75;5068438;28;20038;-73
2022/02/20 05:48:16;;;;;;;1.30;0.50;;;;;;;4.87;82.62;98858.09;5060871;28;20059;-73
2022/02/20 05:50:42;;;;;;;2.53;0.57;;;;;;;4.97;82.57;98866.00;5065771;28;20035;-72
2022/02/20 05:53:07;;;;;;;1.67;0.40;;;;;;;5.00;82.94;98855.78;5063735;28;20724;-72
2022/02/20 05:55:32;;;;;;;1.05;0.32;;;;;;;5.02;82.42;98853.75;5063363;28;20028;-72
2022/02/20 05:57:57;;;;;;;2.22;0.30;;;;;;;4.96;82.44;98837.50;5060848;28;20100;-72
2022/02/20 06:00:25;;;;;;;2.40;0.65;;;;;;;5.05;82.81;98845.38;5064204;28;20120;-72
2022/02/20 06:02:51;;;;;;;1.65;0.30;;;;;;;5.01;82.82;98861.97;5066695;28;20039;-72
2022/02/20 06:05:16;;;;;;;1.45;0.60;;;;;;;5.01;82.98;98870.84;5063698;28;20025;-72
2022/02/20 06:07:42;;;;;;;2.40;0.52;;;;;;;4.96;83.06;98849.06;5077124;28;20059;-70
2022/02/20 06:10:08;;;;;;;1.75;0.28;;;;;;;5.05;83.60;98866.81;5066463;28;20496;-73
2022/02/20 06:12:34;;;;;;;1.27;0.30;;;;;;;5.00;82.91;98857.59;5067905;28;20399;-70
2022/02/20 06:15:00;;;;;;;0.85;0.40;;;;;;;5.02;83.13;98885.09;5061495;28;20033;-71
2022/02/20 06:17:25;;;;;;;2.22;0.65;;;;;;;5.01;82.92;98870.03;5065823;28;20108;-71
2022/02/20 06:19:51;;;;;;;0.73;0.43;;;;;;;5.17;83.03;98887.97;5063920;28;20029;-71
2022/02/20 06:22:16;;;;;;;2.35;0.43;;;;;;;5.18;82.82;98890.47;5068966;28;20035;-71
2022/02/20 06:24:42;;;;;;;5.13;0.75;;;;;;;5.21;82.58;98900.88;5066560;28;20622;-71
2022/02/20 06:27:07;;;;;;;2.72;0.40;;;;;;;5.23;82.62;98898.03;5070659;28;20032;-71
2022/02/20 06:29:33;;;;;;;3.88;0.40;;;;;;;5.24;82.99;98891.66;5059300;28;20060;-71
2022/02/20 06:31:59;;;;;;;2.70;0.43;;;;;;;5.07;82.81;98860.47;5064962;28;20024;-72
2022/02/20 06:34:25;;;;;;;0.98;0.22;;;;;;;5.23;82.34;98898.03;5068327;28;20024;-72
2022/02/20 06:36:50;;;;;;;1.35;0.40;;;;;;;4.98;82.88;98855.09;5072680;28;20082;-74
2022/02/20 06:39:16;;;;;;;2.28;0.47;;;;;;;5.14;82.98;98882.94;5065137;28;20021;-77
2022/02/20 06:41:42;;;;;;;2.15;0.50;;;;;;;5.22;83.30;98909.75;5068088;28;20380;-75
2022/02/20 06:44:07;;;;;;;0.32;0.20;;;;;;;5.16;83.07;98897.00;5064006;28;20028;-76
2022/02/20 06:46:33;;;;;;;1.42;0.43;;;;;;;4.96;82.82;98857.09;5063752;28;20476;-81
2022/02/20 06:48:58;;;;;;;2.47;0.47;;;;;;;5.02;83.72;98872.53;5065317;28;20399;-77
2022/02/20 06:51:24;;;;;;;1.50;0.40;;;;;;;5.20;83.55;98896.50;5061747;28;20032;-78
2022/02/20 06:53:49;;;;;;;1.80;0.50;;;;;;;5.25;83.24;98912.13;5065826;28;20032;-78
2022/02/20 06:56:15;;;;;;;1.80;0.43;;;;;;;4.93;83.51;98852.09;5068869;28;20476;-80
2022/02/20 06:58:40;;;;;;;1.15;0.38;;;;;;;5.25;83.73;98909.44;5066861;28;20389;-78
2022/02/20 07:01:06;;;;;;;1.83;0.60;;;;;;;5.14;84.37;98910.59;5069456;28;20032;-79
2022/02/20 07:03:31;;;;;;;1.25;0.40;;;;;;;4.94;85.69;98887.78;5071805;28;20032;-76
2022/02/20 07:05:57;;;;;;;1.77;0.40;;;;;;;4.92;86.92;98904.00;5069658;28;20063;-78
2022/02/20 07:08:22;;;;;;;2.00;0.40;;;;;;;4.96;87.04;98924.13;5072534;28;20036;-78
2022/02/20 07:10:47;;;;;;;2.92;0.70;;;;;;;4.93;87.01;98912.91;5073389;28;20021;-78
2022/02/20 07:13:13;;;;;;;2.15;0.40;;;;;;;4.78;87.06;98899.31;5068771;28;20075;-77
2022/02/20 07:15:38;;;;;;;1.10;0.35;;;;;;;4.96;86.20;98913.41;5066793;28;20545;-77
2022/02/20 07:18:05;;;;;;;2.35;0.30;;;;;;;4.98;86.61;98924.81;5070821;28;20089;-76
2022/02/20 07:20:31;;;;;;;1.48;0.20;;;;;;;5.00;86.72;98919.28;5066610;28;20028;-76
2022/02/20 07:22:56;;;;;;;1.95;0.50;;;;;;;5.05;86.94;98936.53;5062460;28;20535;-75
2022/02/20 07:25:22;;;;;;;1.52;0.38;;;;;;;4.92;86.09;98905.84;5065277;28;20089;-74
2022/02/20 07:27:53;;;;;;;2.22;0.40;;;;;;;5.14;86.18;98936.59;5067910;28;20102;-76
2022/02/20 07:30:22;;;;;;;0.85;0.52;;;;;;;5.03;85.79;98913.56;5068370;28;20028;-81
2022/02/20 07:32:47;;;;;;;1.83;0.50;;;;;;;4.95;85.75;98900.16;5070934;28;20368;-75
2022/02/20 07:35:12;;;;;;;1.20;0.40;;;;;;;5.15;85.79;98938.25;5068138;28;20025;-76
2022/02/20 07:37:38;;;;;;;3.13;0.32;;;;;;;4.98;85.27;98902.53;5072302;28;20450;-78
2022/02/20 07:40:05;;;;;;;0.70;0.15;;;;;;;5.18;84.73;98924.50;5066516;28;20043;-78
2022/02/20 07:42:30;;;;;;;0.60;0.17;;;;;;;5.20;84.49;98920.66;5067370;28;20396;-77
2022/02/20 07:44:55;;;;;;;0.88;0.30;;;;;;;5.28;83.75;98928.69;5062181;28;20033;-71
2022/02/20 07:47:21;;;;;;;0.50;0.20;;;;;;;5.04;82.71;98877.72;5060240;28;20035;-70
2022/02/20 07:49:46;;;;;;;2.30;0.30;;;;;;;5.22;83.37;98907.09;5061768;28;20468;-85
2022/02/20 07:52:12;;;;;;;0.60;0.30;;;;;;;5.19;82.21;98892.16;5066181;28;20025;-73
2022/02/20 07:54:37;;;;;;;1.48;0.30;;;;;;;5.25;82.42;98894.16;5066202;28;20020;-77
2022/02/20 07:57:03;;;;;;;2.03;0.47;;;;;;;5.39;82.21;98892.66;5073275;28;20040;-84
2022/02/20 07:59:28;;;;;;;2.58;0.43;;;;;;;5.30;82.13;98866.84;5071078;28;20649;-77
2022/02/20 08:01:53;;;;;;;1.92;0.45;;;;;;;5.26;82.13;98857.44;5068099;28;20035;-73
2022/02/20 08:04:19;;;;;;;0.40;0.22;;;;;;;5.32;82.10;98866.66;5058944;28;20081;-76
2022/02/20 08:06:44;;;;;;;1.15;0.30;;;;;;;5.53;81.61;98887.59;5064954;28;20029;-71
2022/02/20 08:09:10;;;;;;;1.67;0.30;;;;;;;5.59;82.17;98881.59;5070249;28;20091;-80
2022/02/20 08:11:35;;;;;;;1.15;0.30;;;;;;;5.74;81.75;98904.06;5064618;28;20202;-72
2022/02/20 08:14:01;;;;;;;0.68;0.25;;;;;;;5.72;81.03;98879.22;5055609;28;20048;-72
2022/02/20 08:16:27;;;;;;;0.55;0.20;;;;;;;5.89;80.57;98894.28;5063250;28;20036;-82
2022/02/20 08:18:53;;;;;;;3.10;0.47;;;;;;;5.91;80.34;98897.63;5061290;28;20024;-71
2022/02/20 08:21:18;;;;;;;0.75;0.30;;;;;;;5.92;79.90;98891.25;5065609;28;20036;-71
2022/02/20 08:23:47;;;;;;;0.60;0.30;;;;;;;5.85;79.70;98868.78;5063340;28;20499;-72
2022/02/20 08:26:13;;;;;;;0.57;0.25;;;;;;;6.01;79.81;98904.69;5065743;28;20483;-70
2022/02/20 08:28:38;;;;;;;0.43;0.15;;;;;;;5.98;78.74;98880.88;5066623;28;20471;-71
2022/02/20 08:31:04;;;;;;;1.42;0.30;;;;;;;6.01;78.22;98867.09;5068331;28;20077;-72
2022/02/20 08:33:30;;;;;;;0.77;0.20;;;;;;;6.31;78.21;98914.69;5059244;28;20089;-71
2022/02/20 08:35:55;;;;;;;0.32;0.20;;;;;;;6.40;77.80;98906.59;5064230;28;20016;-70
2022/02/20 08:38:23;;;;;;;1.17;0.30;;;;;;;6.54;78.03;98921.97;5064946;28;20149;-73
2022/02/20 08:40:49;;;;;;;2.70;0.35;;;;;;;6.48;78.20;98917.31;5062502;28;20102;-74
2022/02/20 08:43:15;;;;;;;2.28;0.30;;;;;;;6.25;79.45;98893.88;5065867;28;20034;-76
2022/02/20 08:45:43;;;;;;;0.70;0.28;;;;;;;6.37;78.72;98923.91;5062506;28;20027;-70
2022/02/20 08:48:09;;;;;;;2.72;0.30;;;;;;;6.47;78.72;98919.16;5062885;28;20105;-70
2022/02/20 08:50:35;;;;;;;2.42;0.55;;;;;;;6.33;79.04;98901.06;5058068;28;20074;-70
2022/02/20 08:53:00;;;;;;;0.98;0.20;;;;;;;6.45;78.24;98901.53;5062775;28;20035;-70
2022/02/20 08:55:27;;;;;;;1.20;0.32;;;;;;;6.49;77.52;98905.53;5063822;28;20029;-70
2022/02/20 08:57:52;;;;;;;3.88;0.40;;;;;;;6.56;77.62;98917.28;5067373;28;20020;-75
2022/02/20 09:00:18;;;;;;;2.40;0.60;;;;;;;6.66;77.19;98917.06;5070434;28;20055;-76
2022/02/20 09:02:43;;;;;;;1.13;0.40;;;;;;;6.59;76.36;98895.41;5075302;28;20028;-79
2022/02/20 09:05:08;;;;;;;1.27;0.40;;;;;;;6.44;76.34;98856.84;5073033;28;20464;-78
2022/02/20 09:07:34;;;;;;;0.68;0.30;;;;;;;6.67;75.69;98865.78;5070410;28;20033;-78
2022/02/20 09:09:59;;;;;;;2.40;0.60;;;;;;;6.95;75.75;98878.75;5067020;28;20119;-75
2022/02/20 09:12:25;;;;;;;0.88;0.35;;;;;;;7.10;74.77;98887.72;5058316;28;20446;-77
2022/02/20 09:14:50;;;;;;;0.55;0.30;;;;;;;7.23;75.15;98906.81;5061760;28;20146;-75
2022/02/20 09:17:16;;;;;;;2.88;0.50;;;;;;;7.17;74.28;98885.13;5058682;28;20052;-75
2022/02/20 09:19:42;;;;;;;1.08;0.30;;;;;;;7.24;74.09;98899.56;5060782;28;20562;-70
2022/02/20 09:22:07;;;;;;;1.23;0.47;;;;;;;7.33;73.65;98887.69;5058340;28;20024;-72
2022/02/20 09:24:33;;;;;;;0.68;0.20;;;;;;;7.31;74.02;98905.91;5059543;28;20097;-70
2022/02/20 09:26:58;;;;;;;2.28;0.30;;;;;;;7.27;73.56;98877.66;5060124;28;20028;-73
2022/02/20 09:29:23;;;;;;;2.03;0.95;;;;;;;7.35;72.59;98869.53;5058977;28;21453;-74
2022/02/20 09:31:49;;;;;;;0.95;0.43;;;;;;;7.51;72.33;98873.94;5059882;28;20032;-70
2022/02/20 09:34:14;;;;;;;1.70;0.50;;;;;;;7.57;71.97;98878.59;5058669;28;20024;-72
2022/02/20 09:36:40;;;;;;;1.02;0.20;;;;;;;7.71;71.93;98892.28;5055238;28;20044;-72
2022/02/20 09:39:06;;;;;;;0.43;0.20;;;;;;;7.69;72.78;98900.53;5060420;28;20468;-76
2022/02/20 09:41:31;;;;;;;0.93;0.20;;;;;;;7.63;72.37;98872.47;5066944;28;20024;-74
2022/02/20 09:43:59;;;;;;;1.15;0.40;;;;;;;7.74;72.56;98889.22;5058376;28;20599;-69
2022/02/20 09:46:25;;;;;;;1.67;0.45;;;;;;;7.82;72.55;98887.25;5060277;28;20856;-70
2022/02/20 09:48:53;;;;;;;1.60;0.60;;;;;;;7.95;71.67;98893.88;5065611;28;20038;-69
2022/02/20 09:51:19;;;;;;;2.25;0.30;;;;;;;7.90;71.26;98876.41;5067417;28;20029;-71
2022/02/20 09:53:45;;;;;;;4.32;0.52;;;;;;;7.79;71.54;98859.88;5062798;28;20044;-70
2022/02/20 09:56:10;;;;;;;0.65;0.20;;;;;;;7.60;71.67;98851.31;5064453;28;20069;-78
2022/02/20 09:58:36;;;;;;;0.73;0.40;;;;;;;7.62;71.68;98853.78;5066367;28;20024;-77
2022/02/20 10:01:14;;;;;;;1.42;0.60;;;;;;;7.73;71.59;98849.81;5064673;28;20089;-77
2022/02/20 10:03:43;;;;;;;2.65;0.55;;;;;;;7.86;71.46;98869.72;5072631;28;20391;-78
2022/02/20 10:06:11;;;;;;;0.50;0.32;;;;;;;7.84;71.77;98863.69;5087170;28;20024;-71
2022/02/20 10:08:41;;;;;;;0.73;0.30;;;;;;;7.75;71.74;98869.31;5068364;28;20055;-70
2022/02/20 10:11:26;;;;;;;1.60;0.28;;;;;;;7.76;72.30;98871.03;5066395;28;20059;-70
2022/02/20 10:14:04;;;;;;;0.60;0.40;;;;;;;7.82;71.21;98879.19;5066774;28;20028;-72
2022/02/20 10:16:31;;;;;;;2.30;0.35;;;;;;;7.92;71.48;98868.16;5066086;28;20446;-73
2022/02/20 10:18:59;;;;;;;1.15;0.32;;;;;;;7.89;71.38;98852.38;5065369;28;20016;-72
2022/02/20 10:21:31;;;;;;;0.43;0.22;;;;;;;8.10;70.09;98854.31;5065363;28;20490;-71
2022/02/20 10:24:12;;;;;;;1.10;0.30;;;;;;;8.20;69.79;98841.41;5064689;28;20021;-73
2022/02/20 10:26:45;;;;;;;0.28;0.25;;;;;;;8.30;69.97;98866.19;5067307;28;20396;-75
2022/02/20 10:29:16;;;;;;;0.60;0.30;;;;;;;8.54;69.12;98861.53;5064945;28;20028;-73
2022/02/20 10:31:48;;;;;;;0.65;0.30;;;;;;;8.78;67.74;98869.31;5065182;28;20460;-70
2022/02/20 10:34:20;;;;;;;1.40;0.30;;;;;;;8.31;68.52;98848.16;5068785;28;20036;-71
2022/02/20 10:36:54;;;;;;;0.30;0.20;;;;;;;8.27;69.00;98853.09;5069607;28;20060;-71
2022/02/20 10:39:28;;;;;;;0.55;0.30;;;;;;;8.54;68.36;98864.22;5065477;28;20041;-75
2022/02/20 10:41:56;;;;;;;0.63;0.32;;;;;;;8.36;67.95;98834.97;5065881;28;20028;-72
2022/02/20 10:44:22;;;;;;;2.00;0.30;;;;;;;8.40;68.16;98838.13;5067460;28;20154;-73
2022/02/20 10:46:50;;;;;;;1.08;0.22;;;;;;;8.46;68.09;98819.38;5067958;28;20399;-81
2022/02/20 10:49:27;;;;;;;1.70;0.68;;;;;;;8.67;67.52;98834.75;5062096;28;20025;-68
2022/02/20 10:51:53;;;;;;;0.50;0.17;;;;;;;8.63;67.35;98824.53;5061202;28;20028;-69
2022/02/20 10:54:18;;;;;;;0.80;0.10;;;;;;;8.84;66.29;98796.72;5060687;28;20516;-69
2022/02/20 10:56:45;;;;;;;0.88;0.30;;;;;;;8.88;66.66;98809.66;5061547;28;20120;-69
2022/02/20 10:59:11;;;;;;;1.30;0.30;;;;;;;8.91;66.31;98817.34;5060514;28;20033;-69
2022/02/20 11:01:36;;;;;;;1.25;0.60;;;;;;;9.23;65.30;98804.34;5062479;28;20025;-69
2022/02/20 11:04:10;;;;;;;0.55;0.25;;;;;;;9.49;65.07;98819.13;5063950;28;20025;-67
2022/02/20 11:06:40;;;;;;;1.52;0.30;;;;;;;9.61;64.44;98806.72;5056783;28;20052;-67
2022/02/20 11:09:05;;;;;;;;;;;;;;;9.27;64.64;98756.19;5059358;28;20028;-66
2022/02/20 11:11:37;;;;;;;1.20;0.52;;;;;;;9.64;64.41;98811.72;5055683;28;19973;-67
2022/02/20 11:14:13;;;;;;;1.08;0.20;;;;;;;9.53;64.11;98799.59;5062628;28;20454;-75
2022/02/20 11:16:52;;;;;;;0.88;0.10;;;;;;;9.05;64.59;98777.00;5062453;28;20020;-76
2022/02/20 11:19:22;;;;;;;2.58;1.25;;;;;;;9.23;64.78;98792.72;5067715;28;20028;-72
2022/02/20 11:21:53;;;;;;;1.25;0.30;;;;;;;9.27;64.07;98777.81;5065744;28;20023;-74
2022/02/20 11:24:19;;;;;;;0.73;0.28;;;;;;;9.17;64.26;98775.47;5067035;28;20033;-72
2022/02/20 11:26:45;;;;;;;0.40;0.10;;;;;;;9.27;64.18;98765.13;5072182;28;20166;-77
2022/02/20 11:29:12;;;;;;;0.17;0.10;;;;;;;9.28;64.41;98788.41;5068677;28;20602;-76
2022/02/20 11:31:40;;;;;;;0.28;0.17;;;;;;;9.55;64.31;98781.34;5071128;28;20074;-76
2022/02/20 11:34:06;;;;;;;1.10;0.32;;;;;;;9.67;64.70;98768.13;5066138;28;20105;-69
2022/02/20 11:36:32;;;;;;;0.93;0.30;;;;;;;9.57;64.58;98773.03;5067197;28;20035;-68